sensor_id;sensor_type;location;lat;lon;timestamp;P1;durP1;ratioP1;P2;durP2;ratioP2
28762;SDS011;15918;51.270;6.522;2023-05-07T00:02:21;5.13;;;4.57;;
28762;SDS011;15918;51.270;6.522;2023-05-07T00:04:47;6.03;;;4.70;;
28762;SDS011;15918;51.270;6.522;2023-05-07T00:07:13;5.50;;;5.00;;
28762;SDS011;15918;51.270;6.522;2023-05-07T00:09:42;5.55;;;5.03;;
28762;SDS011;15918;51.270;6.522;2023-05-07T00:12:08;5.55;;;4.43;;
28762;SDS011;15918;51.270;6.522;2023-05-07T00:14:33;7.50;;;5.43;;
28762;SDS011;15918;51.270;6.522;2023-05-07T00:16:59;5.05;;;4.38;;
28762;SDS011;15918;51.270;6.522;2023-05-07T00:19:24;5.40;;;4.50;;
28762;SDS011;15918;51.270;6.522;2023-05-07T00:21:50;5.05;;;4.60;;
28762;SDS011;15918;51.270;6.522;2023-05-07T00:24:18;5.82;;;4.93;;
28762;SDS011;15918;51.270;6.522;2023-05-07T00:26:44;6.05;;;5.00;;
28762;SDS011;15918;51.270;6.522;2023-05-07T00:29:09;6.10;;;4.97;;
28762;SDS011;15918;51.270;6.522;2023-05-07T00:31:35;6.20;;;4.50;;
28762;SDS011;15918;51.270;6.522;2023-05-07T00:34:01;6.32;;;4.18;;
28762;SDS011;15918;51.270;6.522;2023-05-07T00:36:26;5.07;;;4.50;;
28762;SDS011;15918;51.270;6.522;2023-05-07T00:38:53;6.45;;;5.22;;
28762;SDS011;15918;51.270;6.522;2023-05-07T00:41:20;6.28;;;4.53;;
28762;SDS011;15918;51.270;6.522;2023-05-07T00:43:46;5.78;;;4.43;;
28762;SDS011;15918;51.270;6.522;2023-05-07T00:46:12;5.22;;;4.72;;
28762;SDS011;15918;51.270;6.522;2023-05-07T00:48:38;5.30;;;4.80;;
28762;SDS011;15918;51.270;6.522;2023-05-07T00:51:04;5.93;;;4.85;;
28762;SDS011;15918;51.270;6.522;2023-05-07T00:53:30;6.65;;;4.88;;
28762;SDS011;15918;51.270;6.522;2023-05-07T00:55:56;4.78;;;4.35;;
28762;SDS011;15918;51.270;6.522;2023-05-07T00:58:22;4.88;;;4.47;;
28762;SDS011;15918;51.270;6.522;2023-05-07T01:00:48;5.50;;;4.82;;
28762;SDS011;15918;51.270;6.522;2023-05-07T01:03:15;5.97;;;4.93;;
28762;SDS011;15918;51.270;6.522;2023-05-07T01:05:40;7.15;;;5.68;;
28762;SDS011;15918;51.270;6.522;2023-05-07T01:08:07;6.20;;;5.30;;
28762;SDS011;15918;51.270;6.522;2023-05-07T01:10:34;5.50;;;5.00;;
28762;SDS011;15918;51.270;6.522;2023-05-07T01:12:59;6.70;;;5.55;;
28762;SDS011;15918;51.270;6.522;2023-05-07T01:15:26;5.90;;;4.65;;
28762;SDS011;15918;51.270;6.522;2023-05-07T01:17:51;6.20;;;5.00;;
28762;SDS011;15918;51.270;6.522;2023-05-07T01:20:18;5.10;;;4.60;;
28762;SDS011;15918;51.270;6.522;2023-05-07T01:22:44;6.72;;;5.00;;
28762;SDS011;15918;51.270;6.522;2023-05-07T01:25:10;11.45;;;4.78;;
28762;SDS011;15918;51.270;6.522;2023-05-07T01:27:36;5.18;;;4.47;;
28762;SDS011;15918;51.270;6.522;2023-05-07T01:30:05;5.85;;;4.28;;
28762;SDS011;15918;51.270;6.522;2023-05-07T01:32:40;4.13;;;3.72;;
28762;SDS011;15918;51.270;6.522;2023-05-07T01:35:12;5.13;;;4.60;;
28762;SDS011;15918;51.270;6.522;2023-05-07T01:37:43;6.40;;;4.70;;
28762;SDS011;15918;51.270;6.522;2023-05-07T01:43:12;5.75;;;4.57;;
28762;SDS011;15918;51.270;6.522;2023-05-07T01:45:38;4.90;;;4.45;;
28762;SDS011;15918;51.270;6.522;2023-05-07T01:48:05;4.85;;;4.45;;
28762;SDS011;15918;51.270;6.522;2023-05-07T01:50:32;5.05;;;4.55;;
28762;SDS011;15918;51.270;6.522;2023-05-07T01:52:58;6.85;;;4.93;;
28762;SDS011;15918;51.270;6.522;2023-05-07T01:55:24;5.50;;;5.00;;
28762;SDS011;15918;51.270;6.522;2023-05-07T01:57:50;5.40;;;4.90;;
28762;SDS011;15918;51.270;6.522;2023-05-07T02:00:15;5.15;;;4.60;;
28762;SDS011;15918;51.270;6.522;2023-05-07T02:02:42;5.47;;;4.97;;
28762;SDS011;15918;51.270;6.522;2023-05-07T02:05:08;6.45;;;4.90;;
28762;SDS011;15918;51.270;6.522;2023-05-07T02:07:33;5.65;;;4.55;;
28762;SDS011;15918;51.270;6.522;2023-05-07T02:09:59;5.35;;;4.85;;
28762;SDS011;15918;51.270;6.522;2023-05-07T02:12:25;5.18;;;4.68;;
28762;SDS011;15918;51.270;6.522;2023-05-07T02:14:50;5.45;;;4.95;;
28762;SDS011;15918;51.270;6.522;2023-05-07T02:17:16;5.50;;;4.45;;
28762;SDS011;15918;51.270;6.522;2023-05-07T02:19:41;5.93;;;5.07;;
28762;SDS011;15918;51.270;6.522;2023-05-07T02:22:07;6.45;;;5.32;;
28762;SDS011;15918;51.270;6.522;2023-05-07T02:24:35;8.32;;;5.57;;
28762;SDS011;15918;51.270;6.522;2023-05-07T02:27:00;6.00;;;5.45;;
28762;SDS011;15918;51.270;6.522;2023-05-07T02:29:27;5.45;;;4.90;;
28762;SDS011;15918;51.270;6.522;2023-05-07T02:31:52;11.13;;;5.80;;
28762;SDS011;15918;51.270;6.522;2023-05-07T02:34:18;4.97;;;4.47;;
28762;SDS011;15918;51.270;6.522;2023-05-07T02:36:44;7.50;;;5.15;;
28762;SDS011;15918;51.270;6.522;2023-05-07T02:39:10;6.32;;;4.68;;
28762;SDS011;15918;51.270;6.522;2023-05-07T02:41:37;5.53;;;5.00;;
28762;SDS011;15918;51.270;6.522;2023-05-07T02:44:02;5.47;;;4.97;;
28762;SDS011;15918;51.270;6.522;2023-05-07T02:46:28;4.72;;;4.32;;
28762;SDS011;15918;51.270;6.522;2023-05-07T02:48:53;6.70;;;4.78;;
28762;SDS011;15918;51.270;6.522;2023-05-07T02:51:20;6.15;;;4.72;;
28762;SDS011;15918;51.270;6.522;2023-05-07T02:53:47;5.55;;;4.82;;
28762;SDS011;15918;51.270;6.522;2023-05-07T02:56:12;7.18;;;4.72;;
28762;SDS011;15918;51.270;6.522;2023-05-07T02:58:38;7.15;;;4.80;;
28762;SDS011;15918;51.270;6.522;2023-05-07T03:01:09;6.18;;;4.13;;
28762;SDS011;15918;51.270;6.522;2023-05-07T03:03:35;4.80;;;4.25;;
28762;SDS011;15918;51.270;6.522;2023-05-07T03:06:01;7.30;;;4.70;;
28762;SDS011;15918;51.270;6.522;2023-05-07T03:08:26;5.35;;;4.80;;
28762;SDS011;15918;51.270;6.522;2023-05-07T03:10:52;5.40;;;4.85;;
28762;SDS011;15918;51.270;6.522;2023-05-07T03:13:18;5.47;;;4.38;;
28762;SDS011;15918;51.270;6.522;2023-05-07T03:15:43;6.00;;;4.28;;
28762;SDS011;15918;51.270;6.522;2023-05-07T03:18:09;6.82;;;4.43;;
28762;SDS011;15918;51.270;6.522;2023-05-07T03:20:35;5.20;;;4.68;;
28762;SDS011;15918;51.270;6.522;2023-05-07T03:23:01;7.25;;;4.50;;
28762;SDS011;15918;51.270;6.522;2023-05-07T03:25:27;4.90;;;4.40;;
28762;SDS011;15918;51.270;6.522;2023-05-07T03:27:53;4.93;;;4.43;;
28762;SDS011;15918;51.270;6.522;2023-05-07T03:30:18;6.20;;;4.78;;
28762;SDS011;15918;51.270;6.522;2023-05-07T03:32:44;6.10;;;4.50;;
28762;SDS011;15918;51.270;6.522;2023-05-07T03:35:09;5.25;;;4.75;;
28762;SDS011;15918;51.270;6.522;2023-05-07T03:37:35;5.13;;;4.03;;
28762;SDS011;15918;51.270;6.522;2023-05-07T03:40:00;6.93;;;4.20;;
28762;SDS011;15918;51.270;6.522;2023-05-07T03:42:27;6.22;;;4.25;;
28762;SDS011;15918;51.270;6.522;2023-05-07T03:44:53;6.05;;;4.28;;
28762;SDS011;15918;51.270;6.522;2023-05-07T03:47:19;5.38;;;4.43;;
28762;SDS011;15918;51.270;6.522;2023-05-07T03:49:45;6.53;;;4.53;;
28762;SDS011;15918;51.270;6.522;2023-05-07T03:52:10;7.28;;;4.80;;
28762;SDS011;15918;51.270;6.522;2023-05-07T03:54:36;5.15;;;4.13;;
28762;SDS011;15918;51.270;6.522;2023-05-07T03:57:01;5.90;;;4.95;;
28762;SDS011;15918;51.270;6.522;2023-05-07T03:59:27;5.57;;;4.25;;
28762;SDS011;15918;51.270;6.522;2023-05-07T04:01:53;6.30;;;5.00;;
28762;SDS011;15918;51.270;6.522;2023-05-07T04:04:18;6.05;;;4.35;;
28762;SDS011;15918;51.270;6.522;2023-05-07T04:06:45;4.57;;;4.15;;
28762;SDS011;15918;51.270;6.522;2023-05-07T04:09:10;6.03;;;3.95;;
28762;SDS011;15918;51.270;6.522;2023-05-07T04:11:36;4.07;;;3.78;;
28762;SDS011;15918;51.270;6.522;2023-05-07T04:14:01;5.50;;;4.38;;
28762;SDS011;15918;51.270;6.522;2023-05-07T04:16:27;4.18;;;3.65;;
28762;SDS011;15918;51.270;6.522;2023-05-07T04:18:52;4.53;;;3.90;;
28762;SDS011;15918;51.270;6.522;2023-05-07T04:21:18;4.82;;;4.25;;
28762;SDS011;15918;51.270;6.522;2023-05-07T04:23:45;5.05;;;4.38;;
28762;SDS011;15918;51.270;6.522;2023-05-07T04:26:12;4.47;;;4.03;;
28762;SDS011;15918;51.270;6.522;2023-05-07T04:28:38;5.07;;;4.30;;
28762;SDS011;15918;51.270;6.522;2023-05-07T04:31:04;4.15;;;3.75;;
28762;SDS011;15918;51.270;6.522;2023-05-07T04:33:30;5.50;;;4.25;;
28762;SDS011;15918;51.270;6.522;2023-05-07T04:35:56;4.70;;;3.97;;
28762;SDS011;15918;51.270;6.522;2023-05-07T04:38:22;4.72;;;4.30;;
28762;SDS011;15918;51.270;6.522;2023-05-07T04:40:48;3.80;;;3.38;;
28762;SDS011;15918;51.270;6.522;2023-05-07T04:43:14;4.85;;;3.97;;
28762;SDS011;15918;51.270;6.522;2023-05-07T04:45:40;5.32;;;4.20;;
28762;SDS011;15918;51.270;6.522;2023-05-07T04:48:06;4.50;;;3.97;;
28762;SDS011;15918;51.270;6.522;2023-05-07T04:50:33;4.30;;;3.90;;
28762;SDS011;15918;51.270;6.522;2023-05-07T04:52:59;4.50;;;3.75;;
28762;SDS011;15918;51.270;6.522;2023-05-07T04:55:25;4.45;;;4.05;;
28762;SDS011;15918;51.270;6.522;2023-05-07T04:57:51;4.22;;;3.92;;
28762;SDS011;15918;51.270;6.522;2023-05-07T05:00:18;6.07;;;3.78;;
28762;SDS011;15918;51.270;6.522;2023-05-07T05:02:44;4.45;;;3.90;;
28762;SDS011;15918;51.270;6.522;2023-05-07T05:05:10;4.78;;;4.28;;
28762;SDS011;15918;51.270;6.522;2023-05-07T05:07:36;4.13;;;3.67;;
28762;SDS011;15918;51.270;6.522;2023-05-07T05:10:02;4.75;;;3.92;;
28762;SDS011;15918;51.270;6.522;2023-05-07T05:12:28;5.38;;;3.88;;
28762;SDS011;15918;51.270;6.522;2023-05-07T05:14:54;5.35;;;3.75;;
28762;SDS011;15918;51.270;6.522;2023-05-07T05:17:20;4.88;;;4.32;;
28762;SDS011;15918;51.270;6.522;2023-05-07T05:19:45;5.07;;;4.57;;
28762;SDS011;15918;51.270;6.522;2023-05-07T05:22:11;4.93;;;4.43;;
28762;SDS011;15918;51.270;6.522;2023-05-07T05:24:36;4.63;;;3.92;;
28762;SDS011;15918;51.270;6.522;2023-05-07T05:27:02;4.47;;;4.07;;
28762;SDS011;15918;51.270;6.522;2023-05-07T05:29:27;5.82;;;4.35;;
28762;SDS011;15918;51.270;6.522;2023-05-07T05:31:53;4.28;;;3.60;;
28762;SDS011;15918;51.270;6.522;2023-05-07T05:34:19;5.13;;;3.95;;
28762;SDS011;15918;51.270;6.522;2023-05-07T05:36:44;4.28;;;3.88;;
28762;SDS011;15918;51.270;6.522;2023-05-07T05:39:10;5.78;;;4.47;;
28762;SDS011;15918;51.270;6.522;2023-05-07T05:41:35;4.55;;;4.13;;
28762;SDS011;15918;51.270;6.522;2023-05-07T05:44:01;5.10;;;4.18;;
28762;SDS011;15918;51.270;6.522;2023-05-07T05:46:27;5.05;;;4.65;;
28762;SDS011;15918;51.270;6.522;2023-05-07T05:48:52;5.55;;;4.22;;
28762;SDS011;15918;51.270;6.522;2023-05-07T05:51:18;6.22;;;5.03;;
28762;SDS011;15918;51.270;6.522;2023-05-07T05:53:44;4.95;;;4.45;;
28762;SDS011;15918;51.270;6.522;2023-05-07T05:56:10;6.22;;;4.53;;
28762;SDS011;15918;51.270;6.522;2023-05-07T05:58:36;4.82;;;4.32;;
28762;SDS011;15918;51.270;6.522;2023-05-07T06:01:01;5.40;;;4.88;;
28762;SDS011;15918;51.270;6.522;2023-05-07T06:03:27;5.38;;;4.32;;
28762;SDS011;15918;51.270;6.522;2023-05-07T06:05:53;5.95;;;4.65;;
28762;SDS011;15918;51.270;6.522;2023-05-07T06:08:18;6.07;;;4.55;;
28762;SDS011;15918;51.270;6.522;2023-05-07T06:10:44;6.68;;;5.10;;
28762;SDS011;15918;51.270;6.522;2023-05-07T06:13:10;6.57;;;5.05;;
28762;SDS011;15918;51.270;6.522;2023-05-07T06:15:36;6.72;;;5.53;;
28762;SDS011;15918;51.270;6.522;2023-05-07T06:18:01;5.57;;;4.95;;
28762;SDS011;15918;51.270;6.522;2023-05-07T06:20:27;8.65;;;5.40;;
28762;SDS011;15918;51.270;6.522;2023-05-07T06:22:52;7.13;;;5.13;;
28762;SDS011;15918;51.270;6.522;2023-05-07T06:25:18;8.95;;;5.50;;
28762;SDS011;15918;51.270;6.522;2023-05-07T06:27:44;4.60;;;4.15;;
28762;SDS011;15918;51.270;6.522;2023-05-07T06:30:10;5.90;;;4.70;;
28762;SDS011;15918;51.270;6.522;2023-05-07T06:32:36;8.02;;;5.07;;
28762;SDS011;15918;51.270;6.522;2023-05-07T06:35:01;5.70;;;4.90;;
28762;SDS011;15918;51.270;6.522;2023-05-07T06:37:27;4.60;;;4.07;;
28762;SDS011;15918;51.270;6.522;2023-05-07T06:39:53;7.53;;;5.50;;
28762;SDS011;15918;51.270;6.522;2023-05-07T06:42:18;6.25;;;4.93;;
28762;SDS011;15918;51.270;6.522;2023-05-07T06:44:44;7.25;;;5.22;;
28762;SDS011;15918;51.270;6.522;2023-05-07T06:47:09;6.63;;;5.60;;
28762;SDS011;15918;51.270;6.522;2023-05-07T06:49:35;7.18;;;5.43;;
28762;SDS011;15918;51.270;6.522;2023-05-07T06:52:01;8.98;;;5.05;;
28762;SDS011;15918;51.270;6.522;2023-05-07T06:54:26;7.28;;;5.00;;
28762;SDS011;15918;51.270;6.522;2023-05-07T06:56:53;6.63;;;5.10;;
28762;SDS011;15918;51.270;6.522;2023-05-07T06:59:19;9.05;;;5.85;;
28762;SDS011;15918;51.270;6.522;2023-05-07T07:01:45;10.13;;;5.90;;
28762;SDS011;15918;51.270;6.522;2023-05-07T07:04:10;13.10;;;6.60;;
28762;SDS011;15918;51.270;6.522;2023-05-07T07:06:36;9.07;;;7.07;;
28762;SDS011;15918;51.270;6.522;2023-05-07T07:09:01;9.63;;;6.75;;
28762;SDS011;15918;51.270;6.522;2023-05-07T07:11:27;11.10;;;6.78;;
28762;SDS011;15918;51.270;6.522;2023-05-07T07:13:53;9.77;;;6.53;;
28762;SDS011;15918;51.270;6.522;2023-05-07T07:16:19;5.93;;;4.93;;
28762;SDS011;15918;51.270;6.522;2023-05-07T07:18:46;8.23;;;5.55;;
28762;SDS011;15918;51.270;6.522;2023-05-07T07:21:11;8.07;;;4.82;;
28762;SDS011;15918;51.270;6.522;2023-05-07T07:23:37;6.75;;;5.18;;
28762;SDS011;15918;51.270;6.522;2023-05-07T07:26:02;9.38;;;5.38;;
28762;SDS011;15918;51.270;6.522;2023-05-07T07:28:28;13.00;;;5.68;;
28762;SDS011;15918;51.270;6.522;2023-05-07T07:30:53;6.13;;;4.78;;
28762;SDS011;15918;51.270;6.522;2023-05-07T07:33:19;10.55;;;5.60;;
28762;SDS011;15918;51.270;6.522;2023-05-07T07:35:45;6.30;;;5.43;;
28762;SDS011;15918;51.270;6.522;2023-05-07T07:38:10;5.40;;;4.50;;
28762;SDS011;15918;51.270;6.522;2023-05-07T07:40:36;8.15;;;4.80;;
28762;SDS011;15918;51.270;6.522;2023-05-07T07:43:02;7.45;;;4.72;;
28762;SDS011;15918;51.270;6.522;2023-05-07T07:45:27;5.90;;;5.30;;
28762;SDS011;15918;51.270;6.522;2023-05-07T07:47:53;8.35;;;5.15;;
28762;SDS011;15918;51.270;6.522;2023-05-07T07:50:18;6.53;;;5.40;;
28762;SDS011;15918;51.270;6.522;2023-05-07T07:52:44;5.95;;;4.18;;
28762;SDS011;15918;51.270;6.522;2023-05-07T07:55:10;6.88;;;4.40;;
28762;SDS011;15918;51.270;6.522;2023-05-07T07:57:37;5.65;;;4.57;;
28762;SDS011;15918;51.270;6.522;2023-05-07T08:00:03;7.15;;;4.60;;
28762;SDS011;15918;51.270;6.522;2023-05-07T08:02:29;8.68;;;4.20;;
28762;SDS011;15918;51.270;6.522;2023-05-07T08:04:56;9.00;;;4.13;;
28762;SDS011;15918;51.270;6.522;2023-05-07T08:07:22;10.02;;;4.10;;
28762;SDS011;15918;51.270;6.522;2023-05-07T08:09:47;8.93;;;4.38;;
28762;SDS011;15918;51.270;6.522;2023-05-07T08:12:13;6.35;;;3.90;;
28762;SDS011;15918;51.270;6.522;2023-05-07T08:14:40;6.50;;;3.97;;
28762;SDS011;15918;51.270;6.522;2023-05-07T08:17:06;5.50;;;3.50;;
28762;SDS011;15918;51.270;6.522;2023-05-07T08:19:31;7.05;;;3.58;;
28762;SDS011;15918;51.270;6.522;2023-05-07T08:21:57;5.55;;;3.15;;
28762;SDS011;15918;51.270;6.522;2023-05-07T08:24:23;4.70;;;3.53;;
28762;SDS011;15918;51.270;6.522;2023-05-07T08:26:48;6.00;;;3.90;;
28762;SDS011;15918;51.270;6.522;2023-05-07T08:29:14;4.13;;;3.75;;
28762;SDS011;15918;51.270;6.522;2023-05-07T08:31:40;4.70;;;3.90;;
28762;SDS011;15918;51.270;6.522;2023-05-07T08:34:05;6.60;;;3.80;;
28762;SDS011;15918;51.270;6.522;2023-05-07T08:36:31;4.97;;;4.47;;
28762;SDS011;15918;51.270;6.522;2023-05-07T08:38:57;6.28;;;4.47;;
28762;SDS011;15918;51.270;6.522;2023-05-07T08:41:22;7.93;;;4.88;;
28762;SDS011;15918;51.270;6.522;2023-05-07T08:43:49;5.18;;;4.57;;
28762;SDS011;15918;51.270;6.522;2023-05-07T08:46:22;8.40;;;4.90;;
28762;SDS011;15918;51.270;6.522;2023-05-07T08:48:48;7.53;;;5.05;;
28762;SDS011;15918;51.270;6.522;2023-05-07T08:51:16;6.75;;;4.72;;
28762;SDS011;15918;51.270;6.522;2023-05-07T08:53:42;9.10;;;5.93;;
28762;SDS011;15918;51.270;6.522;2023-05-07T08:56:08;7.22;;;5.28;;
28762;SDS011;15918;51.270;6.522;2023-05-07T08:58:34;7.47;;;4.22;;
28762;SDS011;15918;51.270;6.522;2023-05-07T09:01:07;9.93;;;4.45;;
28762;SDS011;15918;51.270;6.522;2023-05-07T09:03:36;6.68;;;4.82;;
28762;SDS011;15918;51.270;6.522;2023-05-07T09:06:02;4.88;;;4.35;;
28762;SDS011;15918;51.270;6.522;2023-05-07T09:08:28;4.65;;;4.03;;
28762;SDS011;15918;51.270;6.522;2023-05-07T09:10:54;8.73;;;4.43;;
28762;SDS011;15918;51.270;6.522;2023-05-07T09:13:20;6.45;;;4.13;;
28762;SDS011;15918;51.270;6.522;2023-05-07T09:15:46;7.22;;;4.75;;
28762;SDS011;15918;51.270;6.522;2023-05-07T09:18:12;4.88;;;4.07;;
28762;SDS011;15918;51.270;6.522;2023-05-07T09:20:38;6.65;;;4.40;;
28762;SDS011;15918;51.270;6.522;2023-05-07T09:23:05;5.00;;;4.03;;
28762;SDS011;15918;51.270;6.522;2023-05-07T09:25:32;7.57;;;3.75;;
28762;SDS011;15918;51.270;6.522;2023-05-07T09:27:59;4.38;;;3.67;;
28762;SDS011;15918;51.270;6.522;2023-05-07T09:30:29;4.25;;;3.78;;
28762;SDS011;15918;51.270;6.522;2023-05-07T09:32:56;6.03;;;3.75;;
28762;SDS011;15918;51.270;6.522;2023-05-07T09:35:26;7.30;;;3.67;;
28762;SDS011;15918;51.270;6.522;2023-05-07T09:37:52;5.25;;;3.75;;
28762;SDS011;15918;51.270;6.522;2023-05-07T09:40:20;5.43;;;3.67;;
28762;SDS011;15918;51.270;6.522;2023-05-07T09:42:55;6.50;;;3.45;;
28762;SDS011;15918;51.270;6.522;2023-05-07T09:45:25;5.20;;;3.35;;
28762;SDS011;15918;51.270;6.522;2023-05-07T09:47:53;4.30;;;3.10;;
28762;SDS011;15918;51.270;6.522;2023-05-07T09:50:21;5.82;;;3.10;;
28762;SDS011;15918;51.270;6.522;2023-05-07T09:52:55;5.35;;;3.50;;
28762;SDS011;15918;51.270;6.522;2023-05-07T09:55:22;7.10;;;2.90;;
28762;SDS011;15918;51.270;6.522;2023-05-07T09:57:51;4.88;;;3.00;;
28762;SDS011;15918;51.270;6.522;2023-05-07T10:00:21;2.97;;;2.75;;
28762;SDS011;15918;51.270;6.522;2023-05-07T10:02:48;4.70;;;2.83;;
28762;SDS011;15918;51.270;6.522;2023-05-07T10:05:16;4.85;;;2.65;;
28762;SDS011;15918;51.270;6.522;2023-05-07T10:07:43;3.42;;;2.60;;
28762;SDS011;15918;51.270;6.522;2023-05-07T10:10:09;4.40;;;2.78;;
28762;SDS011;15918;51.270;6.522;2023-05-07T10:12:36;4.13;;;2.55;;
28762;SDS011;15918;51.270;6.522;2023-05-07T10:15:13;3.15;;;2.85;;
28762;SDS011;15918;51.270;6.522;2023-05-07T10:17:39;4.00;;;2.75;;
28762;SDS011;15918;51.270;6.522;2023-05-07T10:20:06;3.97;;;2.78;;
28762;SDS011;15918;51.270;6.522;2023-05-07T10:22:33;5.13;;;2.75;;
28762;SDS011;15918;51.270;6.522;2023-05-07T10:25:21;3.53;;;2.65;;
28762;SDS011;15918;51.270;6.522;2023-05-07T10:27:53;3.85;;;2.50;;
28762;SDS011;15918;51.270;6.522;2023-05-07T10:32:59;3.20;;;2.25;;
28762;SDS011;15918;51.270;6.522;2023-05-07T10:35:31;4.72;;;2.45;;
28762;SDS011;15918;51.270;6.522;2023-05-07T10:38:02;3.17;;;2.58;;
28762;SDS011;15918;51.270;6.522;2023-05-07T10:40:29;4.03;;;2.20;;
28762;SDS011;15918;51.270;6.522;2023-05-07T10:42:56;5.97;;;2.80;;
28762;SDS011;15918;51.270;6.522;2023-05-07T10:45:26;6.47;;;2.92;;
28762;SDS011;15918;51.270;6.522;2023-05-07T10:48:08;5.57;;;2.95;;
28762;SDS011;15918;51.270;6.522;2023-05-07T10:50:34;3.65;;;2.75;;
28762;SDS011;15918;51.270;6.522;2023-05-07T10:55:41;10.23;;;3.08;;
28762;SDS011;15918;51.270;6.522;2023-05-07T10:58:23;5.43;;;3.10;;
28762;SDS011;15918;51.270;6.522;2023-05-07T11:01:00;4.95;;;3.30;;
28762;SDS011;15918;51.270;6.522;2023-05-07T11:03:27;4.63;;;2.78;;
28762;SDS011;15918;51.270;6.522;2023-05-07T11:06:09;4.60;;;3.13;;
28762;SDS011;15918;51.270;6.522;2023-05-07T11:08:58;5.22;;;2.80;;
28762;SDS011;15918;51.270;6.522;2023-05-07T11:17:05;4.35;;;2.35;;
28762;SDS011;15918;51.270;6.522;2023-05-07T11:19:48;6.35;;;2.42;;
28762;SDS011;15918;51.270;6.522;2023-05-07T11:22:53;5.25;;;2.30;;
28762;SDS011;15918;51.270;6.522;2023-05-07T11:25:17;3.88;;;2.30;;
28762;SDS011;15918;51.270;6.522;2023-05-07T11:27:45;2.53;;;1.95;;
28762;SDS011;15918;51.270;6.522;2023-05-07T11:30:16;4.10;;;2.13;;
28762;SDS011;15918;51.270;6.522;2023-05-07T11:32:47;4.88;;;2.10;;
28762;SDS011;15918;51.270;6.522;2023-05-07T11:35:13;4.15;;;1.83;;
28762;SDS011;15918;51.270;6.522;2023-05-07T11:37:41;4.22;;;2.20;;
28762;SDS011;15918;51.270;6.522;2023-05-07T11:40:09;3.67;;;2.13;;
28762;SDS011;15918;51.270;6.522;2023-05-07T11:42:37;3.28;;;2.00;;
28762;SDS011;15918;51.270;6.522;2023-05-07T11:45:05;2.95;;;2.15;;
28762;SDS011;15918;51.270;6.522;2023-05-07T11:47:31;3.13;;;2.10;;
28762;SDS011;15918;51.270;6.522;2023-05-07T11:50:02;2.22;;;1.77;;
28762;SDS011;15918;51.270;6.522;2023-05-07T11:52:28;2.33;;;1.80;;
28762;SDS011;15918;51.270;6.522;2023-05-07T11:54:55;3.67;;;2.20;;
28762;SDS011;15918;51.270;6.522;2023-05-07T11:57:22;2.05;;;1.67;;
28762;SDS011;15918;51.270;6.522;2023-05-07T11:59:57;1.48;;;1.38;;
28762;SDS011;15918;51.270;6.522;2023-05-07T12:02:24;1.85;;;1.45;;
28762;SDS011;15918;51.270;6.522;2023-05-07T12:04:50;3.65;;;1.70;;
28762;SDS011;15918;51.270;6.522;2023-05-07T12:07:17;2.88;;;1.83;;
28762;SDS011;15918;51.270;6.522;2023-05-07T12:09:46;3.78;;;1.67;;
28762;SDS011;15918;51.270;6.522;2023-05-07T12:12:12;4.25;;;2.10;;
28762;SDS011;15918;51.270;6.522;2023-05-07T12:14:43;2.38;;;1.67;;
28762;SDS011;15918;51.270;6.522;2023-05-07T12:17:10;1.60;;;1.50;;
28762;SDS011;15918;51.270;6.522;2023-05-07T12:19:38;2.78;;;1.75;;
28762;SDS011;15918;51.270;6.522;2023-05-07T12:22:09;1.98;;;1.75;;
28762;SDS011;15918;51.270;6.522;2023-05-07T12:24:48;2.15;;;1.83;;
28762;SDS011;15918;51.270;6.522;2023-05-07T12:27:15;2.08;;;1.73;;
28762;SDS011;15918;51.270;6.522;2023-05-07T12:29:48;1.90;;;1.63;;
28762;SDS011;15918;51.270;6.522;2023-05-07T12:32:15;2.92;;;2.00;;
28762;SDS011;15918;51.270;6.522;2023-05-07T12:34:45;3.30;;;1.95;;
28762;SDS011;15918;51.270;6.522;2023-05-07T12:37:11;3.10;;;1.88;;
28762;SDS011;15918;51.270;6.522;2023-05-07T12:39:38;2.17;;;1.73;;
28762;SDS011;15918;51.270;6.522;2023-05-07T12:42:08;3.10;;;1.80;;
28762;SDS011;15918;51.270;6.522;2023-05-07T12:44:40;2.35;;;2.10;;
28762;SDS011;15918;51.270;6.522;2023-05-07T12:47:06;4.85;;;1.85;;
28762;SDS011;15918;51.270;6.522;2023-05-07T12:49:34;3.17;;;1.75;;
28762;SDS011;15918;51.270;6.522;2023-05-07T12:52:02;3.58;;;1.70;;
28762;SDS011;15918;51.270;6.522;2023-05-07T12:54:36;2.15;;;1.55;;
28762;SDS011;15918;51.270;6.522;2023-05-07T12:57:07;3.35;;;1.80;;
28762;SDS011;15918;51.270;6.522;2023-05-07T12:59:37;4.40;;;1.98;;
28762;SDS011;15918;51.270;6.522;2023-05-07T13:02:04;4.07;;;2.22;;
28762;SDS011;15918;51.270;6.522;2023-05-07T13:04:30;2.63;;;1.70;;
28762;SDS011;15918;51.270;6.522;2023-05-07T13:06:56;3.42;;;1.73;;
28762;SDS011;15918;51.270;6.522;2023-05-07T13:09:22;3.58;;;1.85;;
28762;SDS011;15918;51.270;6.522;2023-05-07T13:11:48;1.95;;;1.67;;
28762;SDS011;15918;51.270;6.522;2023-05-07T13:14:13;3.33;;;1.60;;
28762;SDS011;15918;51.270;6.522;2023-05-07T13:16:39;1.90;;;1.60;;
28762;SDS011;15918;51.270;6.522;2023-05-07T13:19:04;2.90;;;1.90;;
28762;SDS011;15918;51.270;6.522;2023-05-07T13:21:30;2.42;;;1.95;;
28762;SDS011;15918;51.270;6.522;2023-05-07T13:23:57;2.47;;;1.70;;
28762;SDS011;15918;51.270;6.522;2023-05-07T13:26:23;4.25;;;1.92;;
28762;SDS011;15918;51.270;6.522;2023-05-07T13:28:53;1.92;;;1.73;;
28762;SDS011;15918;51.270;6.522;2023-05-07T13:31:19;4.28;;;2.00;;
28762;SDS011;15918;51.270;6.522;2023-05-07T13:33:45;1.98;;;1.73;;
28762;SDS011;15918;51.270;6.522;2023-05-07T13:36:11;3.33;;;1.90;;
28762;SDS011;15918;51.270;6.522;2023-05-07T13:38:37;2.10;;;1.90;;
28762;SDS011;15918;51.270;6.522;2023-05-07T13:41:02;2.03;;;1.83;;
28762;SDS011;15918;51.270;6.522;2023-05-07T13:43:28;5.32;;;1.70;;
28762;SDS011;15918;51.270;6.522;2023-05-07T13:45:53;5.22;;;2.40;;
28762;SDS011;15918;51.270;6.522;2023-05-07T13:48:19;3.95;;;1.65;;
28762;SDS011;15918;51.270;6.522;2023-05-07T13:50:45;3.13;;;2.17;;
28762;SDS011;15918;51.270;6.522;2023-05-07T13:53:10;4.88;;;2.28;;
28762;SDS011;15918;51.270;6.522;2023-05-07T13:55:36;2.85;;;1.83;;
28762;SDS011;15918;51.270;6.522;2023-05-07T13:58:02;4.43;;;2.20;;
28762;SDS011;15918;51.270;6.522;2023-05-07T14:00:28;2.60;;;1.95;;
28762;SDS011;15918;51.270;6.522;2023-05-07T14:02:54;1.85;;;1.42;;
28762;SDS011;15918;51.270;6.522;2023-05-07T14:05:21;3.00;;;1.92;;
28762;SDS011;15918;51.270;6.522;2023-05-07T14:07:50;3.05;;;1.95;;
28762;SDS011;15918;51.270;6.522;2023-05-07T14:10:17;5.25;;;2.05;;
28762;SDS011;15918;51.270;6.522;2023-05-07T14:12:44;4.85;;;2.50;;
28762;SDS011;15918;51.270;6.522;2023-05-07T14:15:10;3.35;;;2.15;;
28762;SDS011;15918;51.270;6.522;2023-05-07T14:17:36;3.60;;;2.70;;
28762;SDS011;15918;51.270;6.522;2023-05-07T14:20:02;3.47;;;2.40;;
28762;SDS011;15918;51.270;6.522;2023-05-07T14:22:27;3.45;;;2.45;;
28762;SDS011;15918;51.270;6.522;2023-05-07T14:24:53;3.47;;;2.17;;
28762;SDS011;15918;51.270;6.522;2023-05-07T14:27:19;3.28;;;2.30;;
28762;SDS011;15918;51.270;6.522;2023-05-07T14:29:44;3.38;;;2.58;;
28762;SDS011;15918;51.270;6.522;2023-05-07T14:32:10;4.70;;;3.30;;
28762;SDS011;15918;51.270;6.522;2023-05-07T14:34:36;4.85;;;3.03;;
28762;SDS011;15918;51.270;6.522;2023-05-07T14:37:02;4.28;;;2.85;;
28762;SDS011;15918;51.270;6.522;2023-05-07T14:39:27;5.47;;;3.00;;
28762;SDS011;15918;51.270;6.522;2023-05-07T14:41:53;7.32;;;3.40;;
28762;SDS011;15918;51.270;6.522;2023-05-07T14:44:20;6.50;;;3.25;;
28762;SDS011;15918;51.270;6.522;2023-05-07T14:46:46;4.43;;;3.63;;
28762;SDS011;15918;51.270;6.522;2023-05-07T14:49:13;6.85;;;4.20;;
28762;SDS011;15918;51.270;6.522;2023-05-07T14:51:42;7.00;;;4.18;;
28762;SDS011;15918;51.270;6.522;2023-05-07T14:54:09;7.18;;;4.13;;
28762;SDS011;15918;51.270;6.522;2023-05-07T14:56:35;6.38;;;4.18;;
28762;SDS011;15918;51.270;6.522;2023-05-07T14:59:01;8.65;;;4.32;;
28762;SDS011;15918;51.270;6.522;2023-05-07T15:01:28;7.75;;;4.22;;